<?xml version="1.0" encoding="UTF-8" standalone="no" ?>
<gpx xmlns="http://www.topografix.com/GPX/1/1" xmlns:xsi="http://www.w3.org/2001/XMLSchema-instance" xsi:schemaLocation="http://www.topografix.com/GPX/1/1 http://www.topografix.com/GPX/1/1/gpx.xsd" version="1.1" creator="VisuGPX - https://www.visugpx.com">
  <metadata>
    <name>Vacances 2021</name>
  </metadata>
  <trk>
    <name><![CDATA[Journal actif: 2021-07-24 11:15]]></name>
    <trkseg>
      <trkpt lat="49.1594" lon="5.37827">
        <ele>234.7</ele>
        <time>2021-07-24T13:15:52Z</time>
      </trkpt>
      <trkpt lat="49.1594" lon="5.37827">
        <ele>234.22</ele>
        <time>2021-07-24T13:15:58Z</time>
      </trkpt>
      <trkpt lat="49.15939" lon="5.37823">
        <ele>234.22</ele>
        <time>2021-07-24T13:15:59Z</time>
      </trkpt>
      <trkpt lat="49.15934" lon="5.3779">
        <ele>234.22</ele>
        <time>2021-07-24T13:16:12Z</time>
      </trkpt>
      <trkpt lat="49.15934" lon="5.37786">
        <ele>234.22</ele>
        <time>2021-07-24T13:16:14Z</time>
      </trkpt>
      <trkpt lat="49.15933" lon="5.37785">
        <ele>233.74</ele>
        <time>2021-07-24T13:16:15Z</time>
      </trkpt>
      <trkpt lat="49.15933" lon="5.37785">
        <ele>233.74</ele>
        <time>2021-07-24T13:16:16Z</time>
      </trkpt>
      <trkpt lat="49.15933" lon="5.37785">
        <ele>233.74</ele>
        <time>2021-07-24T13:16:17Z</time>
      </trkpt>
      <trkpt lat="49.15933" lon="5.37785">
        <ele>234.22</ele>
        <time>2021-07-24T13:16:18Z</time>
      </trkpt>
      <trkpt lat="49.15933" lon="5.37785">
        <ele>234.22</ele>
        <time>2021-07-24T13:16:19Z</time>
      </trkpt>
      <trkpt lat="49.15933" lon="5.37785">
        <ele>234.22</ele>
        <time>2021-07-24T13:16:20Z</time>
      </trkpt>
      <trkpt lat="49.15933" lon="5.37785">
        <ele>234.22</ele>
        <time>2021-07-24T13:16:22Z</time>
      </trkpt>
      <trkpt lat="49.15949" lon="5.37801">
        <ele>233.74</ele>
        <time>2021-07-24T13:16:35Z</time>
      </trkpt>
      <trkpt lat="49.15989" lon="5.37823">
        <ele>231.81</ele>
        <time>2021-07-24T13:16:49Z</time>
      </trkpt>
      <trkpt lat="49.16063" lon="5.37811">
        <ele>225.09</ele>
        <time>2021-07-24T13:17:06Z</time>
      </trkpt>
      <trkpt lat="49.16112" lon="5.37774">
        <ele>219.32</ele>
        <time>2021-07-24T13:17:20Z</time>
      </trkpt>
      <trkpt lat="49.16152" lon="5.37733">
        <ele>214.99</ele>
        <time>2021-07-24T13:17:31Z</time>
      </trkpt>
      <trkpt lat="49.16179" lon="5.37718">
        <ele>212.59</ele>
        <time>2021-07-24T13:17:37Z</time>
      </trkpt>
      <trkpt lat="49.16184" lon="5.37717">
        <ele>212.11</ele>
        <time>2021-07-24T13:17:38Z</time>
      </trkpt>
      <trkpt lat="49.1619" lon="5.37717">
        <ele>212.11</ele>
        <time>2021-07-24T13:17:39Z</time>
      </trkpt>
      <trkpt lat="49.16195" lon="5.37717">
        <ele>211.63</ele>
        <time>2021-07-24T13:17:40Z</time>
      </trkpt>
      <trkpt lat="49.16198" lon="5.37717">
        <ele>211.63</ele>
        <time>2021-07-24T13:17:41Z</time>
      </trkpt>
      <trkpt lat="49.16202" lon="5.37721">
        <ele>211.63</ele>
        <time>2021-07-24T13:17:42Z</time>
      </trkpt>
      <trkpt lat="49.16205" lon="5.37724">
        <ele>211.15</ele>
        <time>2021-07-24T13:17:43Z</time>
      </trkpt>
      <trkpt lat="49.16208" lon="5.37727">
        <ele>210.67</ele>
        <time>2021-07-24T13:17:44Z</time>
      </trkpt>
      <trkpt lat="49.16215" lon="5.37734">
        <ele>210.67</ele>
        <time>2021-07-24T13:17:45Z</time>
      </trkpt>
      <trkpt lat="49.16215" lon="5.37734">
        <ele>210.67</ele>
        <time>2021-07-24T13:17:46Z</time>
      </trkpt>
      <trkpt lat="49.1625" lon="5.37793">
        <ele>211.15</ele>
        <time>2021-07-24T13:17:57Z</time>
      </trkpt>
      <trkpt lat="49.16262" lon="5.37788">
        <ele>210.67</ele>
        <time>2021-07-24T13:18:06Z</time>
      </trkpt>
      <trkpt lat="49.16294" lon="5.37743">
        <ele>208.74</ele>
        <time>2021-07-24T13:18:16Z</time>
      </trkpt>
      <trkpt lat="49.16297" lon="5.37738">
        <ele>208.26</ele>
        <time>2021-07-24T13:18:17Z</time>
      </trkpt>
      <trkpt lat="49.163" lon="5.37735">
        <ele>208.26</ele>
        <time>2021-07-24T13:18:18Z</time>
      </trkpt>
      <trkpt lat="49.16302" lon="5.37732">
        <ele>207.78</ele>
        <time>2021-07-24T13:18:27Z</time>
      </trkpt>
      <trkpt lat="49.16302" lon="5.37732">
        <ele>207.78</ele>
        <time>2021-07-24T13:18:43Z</time>
      </trkpt>
      <trkpt lat="49.1631" lon="5.37732">
        <ele>207.78</ele>
        <time>2021-07-24T13:18:44Z</time>
      </trkpt>
      <trkpt lat="49.16311" lon="5.37735">
        <ele>207.3</ele>
        <time>2021-07-24T13:18:45Z</time>
      </trkpt>
      <trkpt lat="49.16313" lon="5.3774">
        <ele>207.3</ele>
        <time>2021-07-24T13:18:46Z</time>
      </trkpt>
      <trkpt lat="49.16315" lon="5.37746">
        <ele>207.3</ele>
        <time>2021-07-24T13:18:47Z</time>
      </trkpt>
      <trkpt lat="49.16356" lon="5.37834">
        <ele>207.3</ele>
        <time>2021-07-24T13:18:57Z</time>
      </trkpt>
      <trkpt lat="49.16415" lon="5.3793">
        <ele>206.34</ele>
        <time>2021-07-24T13:19:08Z</time>
      </trkpt>
      <trkpt lat="49.16422" lon="5.37944">
        <ele>206.34</ele>
        <time>2021-07-24T13:19:10Z</time>
      </trkpt>
      <trkpt lat="49.16425" lon="5.37964">
        <ele>206.82</ele>
        <time>2021-07-24T13:19:11Z</time>
      </trkpt>
      <trkpt lat="49.16425" lon="5.37964">
        <ele>206.34</ele>
        <time>2021-07-24T13:19:12Z</time>
      </trkpt>
      <trkpt lat="49.16429" lon="5.37967">
        <ele>205.86</ele>
        <time>2021-07-24T13:19:13Z</time>
      </trkpt>
      <trkpt lat="49.16442" lon="5.37977">
        <ele>206.34</ele>
        <time>2021-07-24T13:19:14Z</time>
      </trkpt>
      <trkpt lat="49.16442" lon="5.37977">
        <ele>206.34</ele>
        <time>2021-07-24T13:19:15Z</time>
      </trkpt>
      <trkpt lat="49.16447" lon="5.37985">
        <ele>206.34</ele>
        <time>2021-07-24T13:19:16Z</time>
      </trkpt>
      <trkpt lat="49.16452" lon="5.37992">
        <ele>205.38</ele>
        <time>2021-07-24T13:19:17Z</time>
      </trkpt>
      <trkpt lat="49.16506" lon="5.38121">
        <ele>201.53</ele>
        <time>2021-07-24T13:19:32Z</time>
      </trkpt>
      <trkpt lat="49.16513" lon="5.38145">
        <ele>201.53</ele>
        <time>2021-07-24T13:19:36Z</time>
      </trkpt>
      <trkpt lat="49.16512" lon="5.38159">
        <ele>201.53</ele>
        <time>2021-07-24T13:19:37Z</time>
      </trkpt>
      <trkpt lat="49.16511" lon="5.38163">
        <ele>201.53</ele>
        <time>2021-07-24T13:19:38Z</time>
      </trkpt>
      <trkpt lat="49.16516" lon="5.38181">
        <ele>201.53</ele>
        <time>2021-07-24T13:19:39Z</time>
      </trkpt>
      <trkpt lat="49.16513" lon="5.38189">
        <ele>201.53</ele>
        <time>2021-07-24T13:19:40Z</time>
      </trkpt>
      <trkpt lat="49.1648" lon="5.38324">
        <ele>201.53</ele>
        <time>2021-07-24T13:19:54Z</time>
      </trkpt>
      <trkpt lat="49.16473" lon="5.38357">
        <ele>201.53</ele>
        <time>2021-07-24T13:20:00Z</time>
      </trkpt>
      <trkpt lat="49.1646" lon="5.38419">
        <ele>200.57</ele>
        <time>2021-07-24T13:20:10Z</time>
      </trkpt>
      <trkpt lat="49.16422" lon="5.38429">
        <ele>201.53</ele>
        <time>2021-07-24T13:20:21Z</time>
      </trkpt>
      <trkpt lat="49.16414" lon="5.38432">
        <ele>201.53</ele>
        <time>2021-07-24T13:20:22Z</time>
      </trkpt>
      <trkpt lat="49.16404" lon="5.38436">
        <ele>201.53</ele>
        <time>2021-07-24T13:20:25Z</time>
      </trkpt>
      <trkpt lat="49.16398" lon="5.38437">
        <ele>201.53</ele>
        <time>2021-07-24T13:20:26Z</time>
      </trkpt>
      <trkpt lat="49.16392" lon="5.38437">
        <ele>201.53</ele>
        <time>2021-07-24T13:20:27Z</time>
      </trkpt>
      <trkpt lat="49.16312" lon="5.38439">
        <ele>200.09</ele>
        <time>2021-07-24T13:20:39Z</time>
      </trkpt>
      <trkpt lat="49.16306" lon="5.38439">
        <ele>199.61</ele>
        <time>2021-07-24T13:20:40Z</time>
      </trkpt>
      <trkpt lat="49.16233" lon="5.38457">
        <ele>198.65</ele>
        <time>2021-07-24T13:20:52Z</time>
      </trkpt>
      <trkpt lat="49.16211" lon="5.38459">
        <ele>198.17</ele>
        <time>2021-07-24T13:20:59Z</time>
      </trkpt>
      <trkpt lat="49.16206" lon="5.3846">
        <ele>198.65</ele>
        <time>2021-07-24T13:21:00Z</time>
      </trkpt>
      <trkpt lat="49.162" lon="5.38461">
        <ele>198.65</ele>
        <time>2021-07-24T13:21:01Z</time>
      </trkpt>
      <trkpt lat="49.16132" lon="5.38459">
        <ele>199.13</ele>
        <time>2021-07-24T13:21:14Z</time>
      </trkpt>
      <trkpt lat="49.16047" lon="5.38457">
        <ele>199.61</ele>
        <time>2021-07-24T13:21:29Z</time>
      </trkpt>
      <trkpt lat="49.15996" lon="5.38447">
        <ele>201.05</ele>
        <time>2021-07-24T13:21:40Z</time>
      </trkpt>
      <trkpt lat="49.15987" lon="5.38447">
        <ele>201.05</ele>
        <time>2021-07-24T13:21:42Z</time>
      </trkpt>
      <trkpt lat="49.15981" lon="5.3845">
        <ele>201.53</ele>
        <time>2021-07-24T13:21:43Z</time>
      </trkpt>
      <trkpt lat="49.15977" lon="5.38455">
        <ele>201.53</ele>
        <time>2021-07-24T13:21:44Z</time>
      </trkpt>
      <trkpt lat="49.15942" lon="5.38539">
        <ele>202.01</ele>
        <time>2021-07-24T13:21:57Z</time>
      </trkpt>
      <trkpt lat="49.15931" lon="5.38589">
        <ele>202.49</ele>
        <time>2021-07-24T13:22:07Z</time>
      </trkpt>
      <trkpt lat="49.15931" lon="5.38592">
        <ele>202.49</ele>
        <time>2021-07-24T13:22:08Z</time>
      </trkpt>
      <trkpt lat="49.15926" lon="5.38599">
        <ele>202.98</ele>
        <time>2021-07-24T13:22:09Z</time>
      </trkpt>
      <trkpt lat="49.15926" lon="5.38599">
        <ele>202.98</ele>
        <time>2021-07-24T13:22:10Z</time>
      </trkpt>
      <trkpt lat="49.15923" lon="5.386">
        <ele>203.46</ele>
        <time>2021-07-24T13:22:11Z</time>
      </trkpt>
      <trkpt lat="49.1589" lon="5.38632">
        <ele>201.53</ele>
        <time>2021-07-24T13:22:21Z</time>
      </trkpt>
      <trkpt lat="49.15856" lon="5.38683">
        <ele>200.57</ele>
        <time>2021-07-24T13:22:33Z</time>
      </trkpt>
      <trkpt lat="49.15852" lon="5.38688">
        <ele>200.57</ele>
        <time>2021-07-24T13:22:34Z</time>
      </trkpt>
      <trkpt lat="49.15849" lon="5.38685">
        <ele>200.57</ele>
        <time>2021-07-24T13:22:35Z</time>
      </trkpt>
      <trkpt lat="49.15846" lon="5.3868">
        <ele>200.57</ele>
        <time>2021-07-24T13:22:36Z</time>
      </trkpt>
      <trkpt lat="49.15842" lon="5.38675">
        <ele>201.05</ele>
        <time>2021-07-24T13:22:37Z</time>
      </trkpt>
      <trkpt lat="49.15839" lon="5.3867">
        <ele>201.05</ele>
        <time>2021-07-24T13:22:38Z</time>
      </trkpt>
      <trkpt lat="49.15817" lon="5.38641">
        <ele>202.01</ele>
        <time>2021-07-24T13:22:43Z</time>
      </trkpt>
      <trkpt lat="49.15814" lon="5.38636">
        <ele>202.01</ele>
        <time>2021-07-24T13:22:44Z</time>
      </trkpt>
      <trkpt lat="49.1577" lon="5.38533">
        <ele>201.53</ele>
        <time>2021-07-24T13:22:59Z</time>
      </trkpt>
      <trkpt lat="49.15758" lon="5.38492">
        <ele>201.53</ele>
        <time>2021-07-24T13:23:05Z</time>
      </trkpt>
      <trkpt lat="49.15758" lon="5.38492">
        <ele>202.01</ele>
        <time>2021-07-24T13:23:06Z</time>
      </trkpt>
      <trkpt lat="49.15764" lon="5.3848">
        <ele>202.01</ele>
        <time>2021-07-24T13:23:07Z</time>
      </trkpt>
      <trkpt lat="49.15769" lon="5.38477">
        <ele>202.49</ele>
        <time>2021-07-24T13:23:08Z</time>
      </trkpt>
      <trkpt lat="49.15774" lon="5.38474">
        <ele>202.49</ele>
        <time>2021-07-24T13:23:09Z</time>
      </trkpt>
      <trkpt lat="49.15779" lon="5.38471">
        <ele>202.98</ele>
        <time>2021-07-24T13:23:10Z</time>
      </trkpt>
      <trkpt lat="49.15804" lon="5.38455">
        <ele>205.38</ele>
        <time>2021-07-24T13:23:16Z</time>
      </trkpt>
      <trkpt lat="49.15804" lon="5.38455">
        <ele>205.86</ele>
        <time>2021-07-24T13:23:17Z</time>
      </trkpt>
      <trkpt lat="49.15804" lon="5.38454">
        <ele>205.86</ele>
        <time>2021-07-24T13:23:18Z</time>
      </trkpt>
      <trkpt lat="49.15803" lon="5.38449">
        <ele>206.34</ele>
        <time>2021-07-24T13:23:19Z</time>
      </trkpt>
      <trkpt lat="49.15801" lon="5.38443">
        <ele>206.34</ele>
        <time>2021-07-24T13:23:20Z</time>
      </trkpt>
      <trkpt lat="49.15766" lon="5.38331">
        <ele>209.7</ele>
        <time>2021-07-24T13:23:34Z</time>
      </trkpt>
      <trkpt lat="49.15728" lon="5.38213">
        <ele>208.26</ele>
        <time>2021-07-24T13:23:46Z</time>
      </trkpt>
      <trkpt lat="49.15661" lon="5.38011">
        <ele>204.9</ele>
        <time>2021-07-24T13:24:05Z</time>
      </trkpt>
      <trkpt lat="49.1566" lon="5.37981">
        <ele>204.42</ele>
        <time>2021-07-24T13:24:12Z</time>
      </trkpt>
      <trkpt lat="49.15664" lon="5.37979">
        <ele>204.9</ele>
        <time>2021-07-24T13:24:13Z</time>
      </trkpt>
      <trkpt lat="49.15669" lon="5.37977">
        <ele>205.38</ele>
        <time>2021-07-24T13:24:14Z</time>
      </trkpt>
      <trkpt lat="49.15734" lon="5.37946">
        <ele>208.26</ele>
        <time>2021-07-24T13:24:26Z</time>
      </trkpt>
    </trkseg>
  </trk>
</gpx>